sensor_id;sensor_type;location;lat;lon;timestamp;temperature;humidity
33105;DHT22;19476;51.448;6.674;2023-04-01T00:01:40;14.50;64.10
33105;DHT22;19476;51.448;6.674;2023-04-01T00:04:06;14.50;64.10
33105;DHT22;19476;51.448;6.674;2023-04-01T00:06:31;14.50;64.10
33105;DHT22;19476;51.448;6.674;2023-04-01T00:08:57;14.50;64.10
33105;DHT22;19476;51.448;6.674;2023-04-01T00:11:23;14.50;64.00
33105;DHT22;19476;51.448;6.674;2023-04-01T00:13:49;14.50;64.00
33105;DHT22;19476;51.448;6.674;2023-04-01T00:16:15;14.50;63.90
33105;DHT22;19476;51.448;6.674;2023-04-01T00:18:41;14.60;63.90
33105;DHT22;19476;51.448;6.674;2023-04-01T00:21:07;14.60;63.80
33105;DHT22;19476;51.448;6.674;2023-04-01T00:23:33;14.50;63.70
33105;DHT22;19476;51.448;6.674;2023-04-01T00:26:00;14.50;63.80
33105;DHT22;19476;51.448;6.674;2023-04-01T00:28:27;14.50;63.90
33105;DHT22;19476;51.448;6.674;2023-04-01T00:30:53;14.50;63.90
33105;DHT22;19476;51.448;6.674;2023-04-01T00:33:19;14.50;63.90
33105;DHT22;19476;51.448;6.674;2023-04-01T00:35:45;14.50;64.00
33105;DHT22;19476;51.448;6.674;2023-04-01T00:38:12;14.50;64.10
33105;DHT22;19476;51.448;6.674;2023-04-01T00:40:44;14.50;64.20
33105;DHT22;19476;51.448;6.674;2023-04-01T00:43:19;14.50;64.40
33105;DHT22;19476;51.448;6.674;2023-04-01T00:45:47;14.50;64.60
33105;DHT22;19476;51.448;6.674;2023-04-01T00:48:29;14.50;64.40
33105;DHT22;19476;51.448;6.674;2023-04-01T00:51:06;14.50;64.80
33105;DHT22;19476;51.448;6.674;2023-04-01T00:53:35;14.50;64.80
33105;DHT22;19476;51.448;6.674;2023-04-01T00:56:10;14.50;64.60
33105;DHT22;19476;51.448;6.674;2023-04-01T00:58:41;14.50;64.80
33105;DHT22;19476;51.448;6.674;2023-04-01T01:01:09;14.50;64.80
33105;DHT22;19476;51.448;6.674;2023-04-01T01:03:36;14.50;64.60
33105;DHT22;19476;51.448;6.674;2023-04-01T01:09:26;14.50;64.90
33105;DHT22;19476;51.448;6.674;2023-04-01T01:12:05;14.50;64.70
33105;DHT22;19476;51.448;6.674;2023-04-01T01:17:26;14.50;64.40
33105;DHT22;19476;51.448;6.674;2023-04-01T01:20:12;14.50;64.20
33105;DHT22;19476;51.448;6.674;2023-04-01T01:30:43;14.50;64.30
33105;DHT22;19476;51.448;6.674;2023-04-01T01:35:52;14.40;63.90
33105;DHT22;19476;51.448;6.674;2023-04-01T01:38:22;14.40;64.10
33105;DHT22;19476;51.448;6.674;2023-04-01T01:40:50;14.40;64.10
33105;DHT22;19476;51.448;6.674;2023-04-01T01:43:23;14.40;64.10
33105;DHT22;19476;51.448;6.674;2023-04-01T01:45:54;14.30;64.10
33105;DHT22;19476;51.448;6.674;2023-04-01T01:48:22;14.40;64.00
33105;DHT22;19476;51.448;6.674;2023-04-01T01:50:48;14.40;63.90
33105;DHT22;19476;51.448;6.674;2023-04-01T01:53:15;14.40;63.80
33105;DHT22;19476;51.448;6.674;2023-04-01T01:55:44;14.40;63.70
33105;DHT22;19476;51.448;6.674;2023-04-01T02:00:36;14.40;63.70
33105;DHT22;19476;51.448;6.674;2023-04-01T02:03:03;14.40;63.80
33105;DHT22;19476;51.448;6.674;2023-04-01T02:05:30;14.40;63.80
33105;DHT22;19476;51.448;6.674;2023-04-01T02:08:09;14.40;63.80
33105;DHT22;19476;51.448;6.674;2023-04-01T02:10:40;14.40;63.90
33105;DHT22;19476;51.448;6.674;2023-04-01T02:13:22;14.40;63.90
33105;DHT22;19476;51.448;6.674;2023-04-01T02:15:53;14.40;64.00
33105;DHT22;19476;51.448;6.674;2023-04-01T02:18:22;14.40;63.90
33105;DHT22;19476;51.448;6.674;2023-04-01T02:20:48;14.40;63.80
33105;DHT22;19476;51.448;6.674;2023-04-01T02:23:14;14.40;63.90
33105;DHT22;19476;51.448;6.674;2023-04-01T02:25:41;14.40;64.20
33105;DHT22;19476;51.448;6.674;2023-04-01T02:28:09;14.40;64.20
33105;DHT22;19476;51.448;6.674;2023-04-01T02:30:36;14.40;64.20
33105;DHT22;19476;51.448;6.674;2023-04-01T02:33:05;14.40;64.40
33105;DHT22;19476;51.448;6.674;2023-04-01T02:35:36;14.40;64.60
33105;DHT22;19476;51.448;6.674;2023-04-01T02:38:03;14.30;64.60
33105;DHT22;19476;51.448;6.674;2023-04-01T02:40:29;14.30;64.80
33105;DHT22;19476;51.448;6.674;2023-04-01T02:42:55;14.30;64.70
33105;DHT22;19476;51.448;6.674;2023-04-01T02:45:20;14.30;64.80
33105;DHT22;19476;51.448;6.674;2023-04-01T02:47:46;14.30;64.80
33105;DHT22;19476;51.448;6.674;2023-04-01T02:50:12;14.30;65.00
33105;DHT22;19476;51.448;6.674;2023-04-01T02:52:38;14.30;64.90
33105;DHT22;19476;51.448;6.674;2023-04-01T02:55:04;14.40;65.00
33105;DHT22;19476;51.448;6.674;2023-04-01T02:57:30;14.40;65.20
33105;DHT22;19476;51.448;6.674;2023-04-01T02:59:56;14.40;65.00
33105;DHT22;19476;51.448;6.674;2023-04-01T03:02:21;14.40;65.00
33105;DHT22;19476;51.448;6.674;2023-04-01T03:04:47;14.40;65.00
33105;DHT22;19476;51.448;6.674;2023-04-01T03:07:13;14.40;65.00
33105;DHT22;19476;51.448;6.674;2023-04-01T03:09:39;14.40;65.00
33105;DHT22;19476;51.448;6.674;2023-04-01T03:12:06;14.40;65.10
33105;DHT22;19476;51.448;6.674;2023-04-01T03:14:31;14.40;65.20
33105;DHT22;19476;51.448;6.674;2023-04-01T03:16:57;14.40;65.20
33105;DHT22;19476;51.448;6.674;2023-04-01T03:19:23;14.40;65.20
33105;DHT22;19476;51.448;6.674;2023-04-01T03:21:48;14.40;65.10
33105;DHT22;19476;51.448;6.674;2023-04-01T03:24:14;14.40;65.20
33105;DHT22;19476;51.448;6.674;2023-04-01T03:26:40;14.40;65.10
33105;DHT22;19476;51.448;6.674;2023-04-01T03:29:06;14.40;65.20
33105;DHT22;19476;51.448;6.674;2023-04-01T03:31:31;14.40;65.30
33105;DHT22;19476;51.448;6.674;2023-04-01T03:33:57;14.30;65.20
33105;DHT22;19476;51.448;6.674;2023-04-01T03:36:23;14.30;65.20
33105;DHT22;19476;51.448;6.674;2023-04-01T03:38:48;14.30;65.20
33105;DHT22;19476;51.448;6.674;2023-04-01T03:41:16;14.30;65.20
33105;DHT22;19476;51.448;6.674;2023-04-01T03:43:43;14.40;65.40
33105;DHT22;19476;51.448;6.674;2023-04-01T03:46:08;14.40;65.30
33105;DHT22;19476;51.448;6.674;2023-04-01T03:48:34;14.40;65.20
33105;DHT22;19476;51.448;6.674;2023-04-01T03:51:00;14.40;65.20
33105;DHT22;19476;51.448;6.674;2023-04-01T03:53:26;14.40;65.10
33105;DHT22;19476;51.448;6.674;2023-04-01T03:55:53;14.40;65.20
33105;DHT22;19476;51.448;6.674;2023-04-01T03:58:19;14.40;65.10
33105;DHT22;19476;51.448;6.674;2023-04-01T04:00:45;14.40;65.10
33105;DHT22;19476;51.448;6.674;2023-04-01T04:03:11;14.40;65.00
33105;DHT22;19476;51.448;6.674;2023-04-01T04:05:37;14.40;65.00
33105;DHT22;19476;51.448;6.674;2023-04-01T04:08:03;14.50;65.00
33105;DHT22;19476;51.448;6.674;2023-04-01T04:10:29;14.50;65.00
33105;DHT22;19476;51.448;6.674;2023-04-01T04:12:55;14.50;64.90
33105;DHT22;19476;51.448;6.674;2023-04-01T04:15:21;14.50;64.90
33105;DHT22;19476;51.448;6.674;2023-04-01T04:17:47;14.50;64.80
33105;DHT22;19476;51.448;6.674;2023-04-01T04:20:13;14.50;64.80
33105;DHT22;19476;51.448;6.674;2023-04-01T04:22:39;14.50;64.80
33105;DHT22;19476;51.448;6.674;2023-04-01T04:25:05;14.50;64.80
33105;DHT22;19476;51.448;6.674;2023-04-01T04:27:31;14.50;64.80
33105;DHT22;19476;51.448;6.674;2023-04-01T04:29:56;14.50;64.80
33105;DHT22;19476;51.448;6.674;2023-04-01T04:32:22;14.60;64.70
33105;DHT22;19476;51.448;6.674;2023-04-01T04:34:48;14.60;64.60
33105;DHT22;19476;51.448;6.674;2023-04-01T04:37:14;14.60;64.50
33105;DHT22;19476;51.448;6.674;2023-04-01T04:39:39;14.60;64.50
33105;DHT22;19476;51.448;6.674;2023-04-01T04:42:05;14.60;64.40
33105;DHT22;19476;51.448;6.674;2023-04-01T04:44:31;14.60;64.50
33105;DHT22;19476;51.448;6.674;2023-04-01T04:46:57;14.60;64.50
33105;DHT22;19476;51.448;6.674;2023-04-01T04:49:22;14.60;64.50
33105;DHT22;19476;51.448;6.674;2023-04-01T04:51:48;14.60;64.40
33105;DHT22;19476;51.448;6.674;2023-04-01T04:54:14;14.60;64.50
33105;DHT22;19476;51.448;6.674;2023-04-01T04:56:39;14.50;64.50
33105;DHT22;19476;51.448;6.674;2023-04-01T04:59:05;14.50;64.60
33105;DHT22;19476;51.448;6.674;2023-04-01T05:01:31;14.50;64.60
33105;DHT22;19476;51.448;6.674;2023-04-01T05:03:59;14.50;64.80
33105;DHT22;19476;51.448;6.674;2023-04-01T05:06:26;14.50;64.80
33105;DHT22;19476;51.448;6.674;2023-04-01T05:08:55;14.50;64.80
33105;DHT22;19476;51.448;6.674;2023-04-01T05:11:22;14.50;64.90
33105;DHT22;19476;51.448;6.674;2023-04-01T05:13:48;14.50;64.90
33105;DHT22;19476;51.448;6.674;2023-04-01T05:16:18;14.50;64.90
33105;DHT22;19476;51.448;6.674;2023-04-01T05:18:46;14.50;65.10
33105;DHT22;19476;51.448;6.674;2023-04-01T05:21:14;14.40;65.00
33105;DHT22;19476;51.448;6.674;2023-04-01T05:23:40;14.40;65.20
33105;DHT22;19476;51.448;6.674;2023-04-01T05:26:08;14.40;65.10
33105;DHT22;19476;51.448;6.674;2023-04-01T05:28:34;14.40;65.30
33105;DHT22;19476;51.448;6.674;2023-04-01T05:31:00;14.40;65.10
33105;DHT22;19476;51.448;6.674;2023-04-01T05:33:27;14.40;65.30
33105;DHT22;19476;51.448;6.674;2023-04-01T05:35:53;14.40;65.20
33105;DHT22;19476;51.448;6.674;2023-04-01T05:38:19;14.50;65.30
33105;DHT22;19476;51.448;6.674;2023-04-01T05:40:45;14.40;65.20
33105;DHT22;19476;51.448;6.674;2023-04-01T05:43:11;14.40;65.20
33105;DHT22;19476;51.448;6.674;2023-04-01T05:45:37;14.40;65.20
33105;DHT22;19476;51.448;6.674;2023-04-01T05:48:03;14.40;65.20
33105;DHT22;19476;51.448;6.674;2023-04-01T05:50:29;14.40;65.30
33105;DHT22;19476;51.448;6.674;2023-04-01T05:52:55;14.40;65.30
33105;DHT22;19476;51.448;6.674;2023-04-01T05:55:21;14.50;65.30
33105;DHT22;19476;51.448;6.674;2023-04-01T05:57:47;14.50;65.20
33105;DHT22;19476;51.448;6.674;2023-04-01T06:00:16;14.50;65.20
33105;DHT22;19476;51.448;6.674;2023-04-01T06:02:42;14.50;65.30
33105;DHT22;19476;51.448;6.674;2023-04-01T06:05:16;14.50;65.20
33105;DHT22;19476;51.448;6.674;2023-04-01T06:07:42;14.50;65.40
33105;DHT22;19476;51.448;6.674;2023-04-01T06:10:19;14.50;65.30
33105;DHT22;19476;51.448;6.674;2023-04-01T06:12:58;14.50;65.70
33105;DHT22;19476;51.448;6.674;2023-04-01T06:18:38;14.50;65.50
33105;DHT22;19476;51.448;6.674;2023-04-01T06:29:54;14.50;65.60
33105;DHT22;19476;51.448;6.674;2023-04-01T06:44:37;14.50;65.50
33105;DHT22;19476;51.448;6.674;2023-04-01T06:53:21;14.50;65.60
33105;DHT22;19476;51.448;6.674;2023-04-01T06:55:57;14.50;65.60
33105;DHT22;19476;51.448;6.674;2023-04-01T07:01:39;14.50;65.90
33105;DHT22;19476;51.448;6.674;2023-04-01T07:04:35;14.50;65.40
33105;DHT22;19476;51.448;6.674;2023-04-01T07:07:25;14.50;65.80
33105;DHT22;19476;51.448;6.674;2023-04-01T07:09:56;14.50;65.70
33105;DHT22;19476;51.448;6.674;2023-04-01T07:15:09;14.40;65.60
33105;DHT22;19476;51.448;6.674;2023-04-01T07:17:39;14.40;65.60
33105;DHT22;19476;51.448;6.674;2023-04-01T07:20:26;14.40;65.60
33105;DHT22;19476;51.448;6.674;2023-04-01T07:22:57;14.40;65.90
33105;DHT22;19476;51.448;6.674;2023-04-01T07:25:38;14.40;65.80
33105;DHT22;19476;51.448;6.674;2023-04-01T07:28:15;14.40;66.10
33105;DHT22;19476;51.448;6.674;2023-04-01T07:31:15;14.40;66.10
33105;DHT22;19476;51.448;6.674;2023-04-01T07:34:08;14.30;66.10
33105;DHT22;19476;51.448;6.674;2023-04-01T07:37:02;14.30;66.10
33105;DHT22;19476;51.448;6.674;2023-04-01T07:40:09;14.30;66.30
33105;DHT22;19476;51.448;6.674;2023-04-01T07:45:38;14.30;66.70
33105;DHT22;19476;51.448;6.674;2023-04-01T07:59:18;14.30;66.80
33105;DHT22;19476;51.448;6.674;2023-04-01T08:13:18;14.20;67.00
33105;DHT22;19476;51.448;6.674;2023-04-01T08:18:28;14.20;67.10
33105;DHT22;19476;51.448;6.674;2023-04-01T08:21:25;14.20;67.90
33105;DHT22;19476;51.448;6.674;2023-04-01T08:23:56;14.20;67.60
33105;DHT22;19476;51.448;6.674;2023-04-01T08:26:34;14.20;67.20
33105;DHT22;19476;51.448;6.674;2023-04-01T08:29:21;14.20;67.40
33105;DHT22;19476;51.448;6.674;2023-04-01T08:32:18;14.20;67.60
33105;DHT22;19476;51.448;6.674;2023-04-01T08:34:55;14.20;67.70
33105;DHT22;19476;51.448;6.674;2023-04-01T08:37:28;14.20;67.60
33105;DHT22;19476;51.448;6.674;2023-04-01T08:40:11;14.20;67.60
33105;DHT22;19476;51.448;6.674;2023-04-01T08:45:38;14.20;67.40
33105;DHT22;19476;51.448;6.674;2023-04-01T08:56:20;14.30;67.40
33105;DHT22;19476;51.448;6.674;2023-04-01T09:13:35;14.40;67.90
33105;DHT22;19476;51.448;6.674;2023-04-01T09:19:10;14.50;67.60
33105;DHT22;19476;51.448;6.674;2023-04-01T09:38:28;14.80;67.40
33105;DHT22;19476;51.448;6.674;2023-04-01T09:40:58;14.80;67.50
33105;DHT22;19476;51.448;6.674;2023-04-01T09:59:47;14.90;67.00
33105;DHT22;19476;51.448;6.674;2023-04-01T10:07:43;15.00;66.50
33105;DHT22;19476;51.448;6.674;2023-04-01T10:18:57;14.90;66.50
33105;DHT22;19476;51.448;6.674;2023-04-01T10:27:05;14.90;67.00
33105;DHT22;19476;51.448;6.674;2023-04-01T10:33:03;14.90;67.30
33105;DHT22;19476;51.448;6.674;2023-04-01T10:36:10;14.90;67.40
33105;DHT22;19476;51.448;6.674;2023-04-01T11:07:06;14.90;67.20
33105;DHT22;19476;51.448;6.674;2023-04-01T11:12:49;15.00;67.10
33105;DHT22;19476;51.448;6.674;2023-04-01T11:24:03;15.00;66.50
33105;DHT22;19476;51.448;6.674;2023-04-01T11:32:35;15.10;67.00
33105;DHT22;19476;51.448;6.674;2023-04-01T11:35:22;15.10;67.10
33105;DHT22;19476;51.448;6.674;2023-04-01T11:43:51;15.10;67.00
33105;DHT22;19476;51.448;6.674;2023-04-01T11:46:46;15.10;66.90
33105;DHT22;19476;51.448;6.674;2023-04-01T11:52:21;15.20;67.10
33105;DHT22;19476;51.448;6.674;2023-04-01T11:57:35;15.20;66.80
33105;DHT22;19476;51.448;6.674;2023-04-01T12:03:36;15.20;66.70
33105;DHT22;19476;51.448;6.674;2023-04-01T12:14:45;15.30;67.20
33105;DHT22;19476;51.448;6.674;2023-04-01T12:17:26;15.30;67.20
33105;DHT22;19476;51.448;6.674;2023-04-01T12:22:23;15.40;67.20
33105;DHT22;19476;51.448;6.674;2023-04-01T12:44:28;15.40;66.10
33105;DHT22;19476;51.448;6.674;2023-04-01T12:47:18;15.40;65.90
33105;DHT22;19476;51.448;6.674;2023-04-01T12:55:45;15.40;66.30
33105;DHT22;19476;51.448;6.674;2023-04-01T13:06:49;15.30;66.40
33105;DHT22;19476;51.448;6.674;2023-04-01T13:10:02;15.30;66.40
33105;DHT22;19476;51.448;6.674;2023-04-01T13:15:41;15.30;66.40
33105;DHT22;19476;51.448;6.674;2023-04-01T13:20:46;15.30;66.30
33105;DHT22;19476;51.448;6.674;2023-04-01T13:40:00;15.20;66.50
33105;DHT22;19476;51.448;6.674;2023-04-01T13:42:38;15.20;66.80
33105;DHT22;19476;51.448;6.674;2023-04-01T13:45:25;15.20;66.70
33105;DHT22;19476;51.448;6.674;2023-04-01T13:56:14;15.20;66.80
33105;DHT22;19476;51.448;6.674;2023-04-01T14:01:56;15.20;67.20
33105;DHT22;19476;51.448;6.674;2023-04-01T14:10:25;15.20;66.80
33105;DHT22;19476;51.448;6.674;2023-04-01T14:21:43;15.30;66.90
33105;DHT22;19476;51.448;6.674;2023-04-01T14:24:30;15.30;66.90
33105;DHT22;19476;51.448;6.674;2023-04-01T15:24:26;15.30;66.50
33105;DHT22;19476;51.448;6.674;2023-04-01T15:32:51;15.50;66.70
33105;DHT22;19476;51.448;6.674;2023-04-01T15:38:27;15.40;66.40
33105;DHT22;19476;51.448;6.674;2023-04-01T15:41:36;15.40;66.50
33105;DHT22;19476;51.448;6.674;2023-04-01T15:44:46;15.30;66.60
33105;DHT22;19476;51.448;6.674;2023-04-01T16:09:02;15.50;66.60
33105;DHT22;19476;51.448;6.674;2023-04-01T16:11:53;15.50;66.60
33105;DHT22;19476;51.448;6.674;2023-04-01T16:25:33;15.60;66.10
33105;DHT22;19476;51.448;6.674;2023-04-01T16:34:17;15.50;65.90
33105;DHT22;19476;51.448;6.674;2023-04-01T16:40:10;15.50;66.00
33105;DHT22;19476;51.448;6.674;2023-04-01T16:42:41;15.50;65.90
33105;DHT22;19476;51.448;6.674;2023-04-01T16:45:16;15.50;65.80
33105;DHT22;19476;51.448;6.674;2023-04-01T16:48:05;15.50;65.80
33105;DHT22;19476;51.448;6.674;2023-04-01T16:51:02;15.50;65.80
33105;DHT22;19476;51.448;6.674;2023-04-01T16:53:43;15.50;65.90
33105;DHT22;19476;51.448;6.674;2023-04-01T16:56:36;15.50;65.80
33105;DHT22;19476;51.448;6.674;2023-04-01T17:04:28;15.50;66.00
33105;DHT22;19476;51.448;6.674;2023-04-01T17:07:05;15.50;65.90
33105;DHT22;19476;51.448;6.674;2023-04-01T17:12:40;15.50;65.80
33105;DHT22;19476;51.448;6.674;2023-04-01T17:23:31;15.50;65.80
33105;DHT22;19476;51.448;6.674;2023-04-01T17:31:52;15.40;65.90
33105;DHT22;19476;51.448;6.674;2023-04-01T17:40:18;15.50;66.50
33105;DHT22;19476;51.448;6.674;2023-04-01T17:45:37;15.50;65.80
33105;DHT22;19476;51.448;6.674;2023-04-01T17:48:35;15.40;65.70
33105;DHT22;19476;51.448;6.674;2023-04-01T17:51:17;15.50;66.10
33105;DHT22;19476;51.448;6.674;2023-04-01T17:57:06;15.50;65.90
33105;DHT22;19476;51.448;6.674;2023-04-01T17:59:49;15.40;66.00
33105;DHT22;19476;51.448;6.674;2023-04-01T18:08:06;15.40;65.90
33105;DHT22;19476;51.448;6.674;2023-04-01T18:10:39;15.50;65.70
33105;DHT22;19476;51.448;6.674;2023-04-01T18:30:44;15.40;65.90
33105;DHT22;19476;51.448;6.674;2023-04-01T18:36:22;15.40;65.90
33105;DHT22;19476;51.448;6.674;2023-04-01T18:38:56;15.40;66.00
33105;DHT22;19476;51.448;6.674;2023-04-01T18:41:34;15.30;65.70
33105;DHT22;19476;51.448;6.674;2023-04-01T18:52:37;15.20;66.00
33105;DHT22;19476;51.448;6.674;2023-04-01T18:57:51;15.20;66.40
33105;DHT22;19476;51.448;6.674;2023-04-01T19:00:41;15.20;66.70
33105;DHT22;19476;51.448;6.674;2023-04-01T19:06:28;15.30;66.90
33105;DHT22;19476;51.448;6.674;2023-04-01T19:09:11;15.40;66.70
33105;DHT22;19476;51.448;6.674;2023-04-01T19:12:03;15.40;66.60
33105;DHT22;19476;51.448;6.674;2023-04-01T19:20:13;15.50;66.30
33105;DHT22;19476;51.448;6.674;2023-04-01T19:22:50;15.20;66.00
33105;DHT22;19476;51.448;6.674;2023-04-01T19:25:45;15.50;66.10
33105;DHT22;19476;51.448;6.674;2023-04-01T19:28:32;15.50;66.10
33105;DHT22;19476;51.448;6.674;2023-04-01T19:34:19;15.60;65.70
33105;DHT22;19476;51.448;6.674;2023-04-01T19:36:58;15.60;65.60
33105;DHT22;19476;51.448;6.674;2023-04-01T19:42:24;15.60;65.20
33105;DHT22;19476;51.448;6.674;2023-04-01T19:45:07;15.60;65.10
33105;DHT22;19476;51.448;6.674;2023-04-01T19:47:57;15.60;65.00
33105;DHT22;19476;51.448;6.674;2023-04-01T19:50:37;15.60;64.90
33105;DHT22;19476;51.448;6.674;2023-04-01T19:56:07;15.60;64.20
33105;DHT22;19476;51.448;6.674;2023-04-01T20:04:30;15.60;63.70
33105;DHT22;19476;51.448;6.674;2023-04-01T20:07:07;15.50;63.70
33105;DHT22;19476;51.448;6.674;2023-04-01T20:09:56;15.30;63.50
33105;DHT22;19476;51.448;6.674;2023-04-01T20:15:45;15.50;63.40
33105;DHT22;19476;51.448;6.674;2023-04-01T20:18:36;15.50;63.60
33105;DHT22;19476;51.448;6.674;2023-04-01T20:21:16;15.50;63.60
33105;DHT22;19476;51.448;6.674;2023-04-01T20:23:52;15.30;63.40
33105;DHT22;19476;51.448;6.674;2023-04-01T20:26:42;15.40;63.30
33105;DHT22;19476;51.448;6.674;2023-04-01T20:29:35;15.40;63.20
33105;DHT22;19476;51.448;6.674;2023-04-01T20:32:26;15.40;63.20
33105;DHT22;19476;51.448;6.674;2023-04-01T20:38:25;15.30;62.70
33105;DHT22;19476;51.448;6.674;2023-04-01T20:41:16;15.30;62.70
33105;DHT22;19476;51.448;6.674;2023-04-01T20:49:39;15.20;62.70
33105;DHT22;19476;51.448;6.674;2023-04-01T20:52:20;15.20;62.60
33105;DHT22;19476;51.448;6.674;2023-04-01T20:57:50;15.10;62.40
33105;DHT22;19476;51.448;6.674;2023-04-01T21:03:15;15.10;62.90
33105;DHT22;19476;51.448;6.674;2023-04-01T21:08:57;15.10;62.80
33105;DHT22;19476;51.448;6.674;2023-04-01T21:11:45;15.10;62.50
33105;DHT22;19476;51.448;6.674;2023-04-01T21:28:11;15.10;61.70
33105;DHT22;19476;51.448;6.674;2023-04-01T21:31:11;15.10;61.30
33105;DHT22;19476;51.448;6.674;2023-04-01T21:36:40;15.00;61.30
33105;DHT22;19476;51.448;6.674;2023-04-01T21:42:25;14.90;62.10
33105;DHT22;19476;51.448;6.674;2023-04-01T21:45:16;14.90;61.50
33105;DHT22;19476;51.448;6.674;2023-04-01T21:50:47;14.80;61.30
33105;DHT22;19476;51.448;6.674;2023-04-01T22:07:17;14.60;60.90
33105;DHT22;19476;51.448;6.674;2023-04-01T22:10:10;14.60;60.80
33105;DHT22;19476;51.448;6.674;2023-04-01T22:12:46;14.60;61.10
33105;DHT22;19476;51.448;6.674;2023-04-01T22:21:12;14.50;61.10
33105;DHT22;19476;51.448;6.674;2023-04-01T22:23:57;14.40;60.90
33105;DHT22;19476;51.448;6.674;2023-04-01T22:26:47;14.40;60.80
33105;DHT22;19476;51.448;6.674;2023-04-01T22:29:39;14.40;60.80
33105;DHT22;19476;51.448;6.674;2023-04-01T22:32:27;14.40;61.00
33105;DHT22;19476;51.448;6.674;2023-04-01T22:37:45;14.40;60.90
33105;DHT22;19476;51.448;6.674;2023-04-01T22:43:07;14.40;60.60
33105;DHT22;19476;51.448;6.674;2023-04-01T22:56:39;14.30;60.80
33105;DHT22;19476;51.448;6.674;2023-04-01T22:59:13;14.30;61.00
33105;DHT22;19476;51.448;6.674;2023-04-01T23:02:10;14.20;61.10
33105;DHT22;19476;51.448;6.674;2023-04-01T23:04:41;14.20;61.10
33105;DHT22;19476;51.448;6.674;2023-04-01T23:13:20;14.20;60.90
33105;DHT22;19476;51.448;6.674;2023-04-01T23:15:58;14.20;61.00
33105;DHT22;19476;51.448;6.674;2023-04-01T23:22:21;14.20;60.70
33105;DHT22;19476;51.448;6.674;2023-04-01T23:28:18;14.20;60.60
33105;DHT22;19476;51.448;6.674;2023-04-01T23:30:48;14.20;60.50
33105;DHT22;19476;51.448;6.674;2023-04-01T23:37:02;14.10;60.50
33105;DHT22;19476;51.448;6.674;2023-04-01T23:39:43;14.10;60.20
33105;DHT22;19476;51.448;6.674;2023-04-01T23:45:29;14.00;59.80
33105;DHT22;19476;51.448;6.674;2023-04-01T23:48:35;14.00;59.90
33105;DHT22;19476;51.448;6.674;2023-04-01T23:57:41;13.80;59.50
